sensor_id;sensor_type;location;lat;lon;timestamp;temperature;humidity
5382;DHT22;2714;49.852;6.564;2023-03-21T00:03:52;9.10;99.90
5382;DHT22;2714;49.852;6.564;2023-03-21T00:07:53;9.20;99.90
5382;DHT22;2714;49.852;6.564;2023-03-21T00:11:53;9.20;99.90
5382;DHT22;2714;49.852;6.564;2023-03-21T00:15:54;9.30;99.90
5382;DHT22;2714;49.852;6.564;2023-03-21T00:19:54;9.30;99.90
5382;DHT22;2714;49.852;6.564;2023-03-21T00:23:55;9.30;99.90
5382;DHT22;2714;49.852;6.564;2023-03-21T00:27:55;9.20;99.90
5382;DHT22;2714;49.852;6.564;2023-03-21T00:31:56;9.10;99.90
5382;DHT22;2714;49.852;6.564;2023-03-21T00:35:57;9.20;99.90
5382;DHT22;2714;49.852;6.564;2023-03-21T00:39:57;9.20;99.90
5382;DHT22;2714;49.852;6.564;2023-03-21T00:43:58;9.20;99.90
5382;DHT22;2714;49.852;6.564;2023-03-21T00:47:58;9.20;99.90
5382;DHT22;2714;49.852;6.564;2023-03-21T00:52:00;9.10;99.90
5382;DHT22;2714;49.852;6.564;2023-03-21T00:56:01;9.10;99.90
5382;DHT22;2714;49.852;6.564;2023-03-21T01:00:02;9.10;99.90
5382;DHT22;2714;49.852;6.564;2023-03-21T01:04:03;9.10;99.90
5382;DHT22;2714;49.852;6.564;2023-03-21T01:08:06;9.10;99.90
5382;DHT22;2714;49.852;6.564;2023-03-21T01:12:07;9.10;99.90
5382;DHT22;2714;49.852;6.564;2023-03-21T01:16:09;9.10;99.90
5382;DHT22;2714;49.852;6.564;2023-03-21T01:20:10;9.20;99.90
5382;DHT22;2714;49.852;6.564;2023-03-21T01:24:11;9.20;99.90
5382;DHT22;2714;49.852;6.564;2023-03-21T01:28:11;9.20;99.90
5382;DHT22;2714;49.852;6.564;2023-03-21T01:32:12;9.10;99.90
5382;DHT22;2714;49.852;6.564;2023-03-21T01:36:15;9.00;99.90
5382;DHT22;2714;49.852;6.564;2023-03-21T01:40:23;9.00;99.90
5382;DHT22;2714;49.852;6.564;2023-03-21T01:44:24;9.00;99.90
5382;DHT22;2714;49.852;6.564;2023-03-21T01:48:26;8.80;99.90
5382;DHT22;2714;49.852;6.564;2023-03-21T01:52:31;8.80;99.90
5382;DHT22;2714;49.852;6.564;2023-03-21T01:56:36;8.90;99.90
5382;DHT22;2714;49.852;6.564;2023-03-21T02:00:37;9.00;99.90
5382;DHT22;2714;49.852;6.564;2023-03-21T02:04:38;9.00;99.90
5382;DHT22;2714;49.852;6.564;2023-03-21T02:08:39;9.00;99.90
5382;DHT22;2714;49.852;6.564;2023-03-21T02:12:40;9.00;99.90
5382;DHT22;2714;49.852;6.564;2023-03-21T02:16:57;8.90;99.90
5382;DHT22;2714;49.852;6.564;2023-03-21T02:47:02;8.80;99.90
5382;DHT22;2714;49.852;6.564;2023-03-21T02:51:05;8.70;99.90
5382;DHT22;2714;49.852;6.564;2023-03-21T02:55:12;8.80;99.90
5382;DHT22;2714;49.852;6.564;2023-03-21T02:59:15;8.80;99.90
5382;DHT22;2714;49.852;6.564;2023-03-21T03:03:17;9.00;99.90
5382;DHT22;2714;49.852;6.564;2023-03-21T03:11:51;9.00;99.90
5382;DHT22;2714;49.852;6.564;2023-03-21T03:20:16;8.90;99.90
5382;DHT22;2714;49.852;6.564;2023-03-21T03:24:28;9.00;99.90
5382;DHT22;2714;49.852;6.564;2023-03-21T03:28:35;9.10;99.90
5382;DHT22;2714;49.852;6.564;2023-03-21T03:32:45;9.10;99.90
5382;DHT22;2714;49.852;6.564;2023-03-21T03:36:50;9.00;99.90
5382;DHT22;2714;49.852;6.564;2023-03-21T03:41:04;9.00;99.90
5382;DHT22;2714;49.852;6.564;2023-03-21T03:45:08;9.00;99.90
5382;DHT22;2714;49.852;6.564;2023-03-21T03:49:34;8.90;99.90
5382;DHT22;2714;49.852;6.564;2023-03-21T03:53:42;8.80;99.90
5382;DHT22;2714;49.852;6.564;2023-03-21T03:57:44;8.70;99.90
5382;DHT22;2714;49.852;6.564;2023-03-21T04:01:44;8.60;99.90
5382;DHT22;2714;49.852;6.564;2023-03-21T04:05:45;8.70;99.90
5382;DHT22;2714;49.852;6.564;2023-03-21T04:09:46;8.70;99.90
5382;DHT22;2714;49.852;6.564;2023-03-21T04:13:46;8.70;99.90
5382;DHT22;2714;49.852;6.564;2023-03-21T04:17:47;8.70;99.90
5382;DHT22;2714;49.852;6.564;2023-03-21T04:21:48;8.70;99.90
5382;DHT22;2714;49.852;6.564;2023-03-21T04:25:48;8.70;99.90
5382;DHT22;2714;49.852;6.564;2023-03-21T04:29:50;8.70;99.90
5382;DHT22;2714;49.852;6.564;2023-03-21T04:33:50;8.70;99.90
5382;DHT22;2714;49.852;6.564;2023-03-21T04:37:51;8.80;99.90
5382;DHT22;2714;49.852;6.564;2023-03-21T04:41:51;8.80;99.90
5382;DHT22;2714;49.852;6.564;2023-03-21T04:45:52;8.80;99.90
5382;DHT22;2714;49.852;6.564;2023-03-21T04:49:53;8.80;99.90
5382;DHT22;2714;49.852;6.564;2023-03-21T04:53:54;8.80;99.90
5382;DHT22;2714;49.852;6.564;2023-03-21T04:57:57;8.80;99.90
5382;DHT22;2714;49.852;6.564;2023-03-21T05:01:58;8.80;99.90
5382;DHT22;2714;49.852;6.564;2023-03-21T05:05:59;8.70;99.90
5382;DHT22;2714;49.852;6.564;2023-03-21T05:09:59;8.60;99.90
5382;DHT22;2714;49.852;6.564;2023-03-21T05:14:00;8.50;99.90
5382;DHT22;2714;49.852;6.564;2023-03-21T05:18:01;8.40;99.90
5382;DHT22;2714;49.852;6.564;2023-03-21T05:22:10;8.50;99.90
5382;DHT22;2714;49.852;6.564;2023-03-21T05:26:11;8.50;99.90
5382;DHT22;2714;49.852;6.564;2023-03-21T05:30:14;8.50;99.90
5382;DHT22;2714;49.852;6.564;2023-03-21T05:34:16;8.50;99.90
5382;DHT22;2714;49.852;6.564;2023-03-21T05:38:17;8.50;99.90
5382;DHT22;2714;49.852;6.564;2023-03-21T05:42:18;8.50;99.90
5382;DHT22;2714;49.852;6.564;2023-03-21T05:46:18;8.50;99.90
5382;DHT22;2714;49.852;6.564;2023-03-21T05:50:19;8.50;99.90
5382;DHT22;2714;49.852;6.564;2023-03-21T05:54:20;8.50;99.90
5382;DHT22;2714;49.852;6.564;2023-03-21T05:58:20;8.50;99.90
5382;DHT22;2714;49.852;6.564;2023-03-21T06:02:21;8.60;99.90
5382;DHT22;2714;49.852;6.564;2023-03-21T06:06:21;8.60;99.90
5382;DHT22;2714;49.852;6.564;2023-03-21T06:10:22;8.70;99.90
5382;DHT22;2714;49.852;6.564;2023-03-21T06:14:24;8.70;99.90
5382;DHT22;2714;49.852;6.564;2023-03-21T06:18:24;8.70;99.90
5382;DHT22;2714;49.852;6.564;2023-03-21T06:22:26;8.70;99.90
5382;DHT22;2714;49.852;6.564;2023-03-21T06:26:27;8.60;99.90
5382;DHT22;2714;49.852;6.564;2023-03-21T06:30:28;8.60;99.90
5382;DHT22;2714;49.852;6.564;2023-03-21T06:34:28;8.70;99.90
5382;DHT22;2714;49.852;6.564;2023-03-21T06:38:29;8.80;99.90
5382;DHT22;2714;49.852;6.564;2023-03-21T06:42:31;8.80;99.90
5382;DHT22;2714;49.852;6.564;2023-03-21T06:46:31;8.90;99.90
5382;DHT22;2714;49.852;6.564;2023-03-21T06:50:32;8.90;99.90
5382;DHT22;2714;49.852;6.564;2023-03-21T06:54:33;8.80;99.90
5382;DHT22;2714;49.852;6.564;2023-03-21T06:58:34;8.70;99.90
5382;DHT22;2714;49.852;6.564;2023-03-21T07:02:34;8.90;99.90
5382;DHT22;2714;49.852;6.564;2023-03-21T07:06:36;8.70;99.90
5382;DHT22;2714;49.852;6.564;2023-03-21T07:10:41;8.50;99.90
5382;DHT22;2714;49.852;6.564;2023-03-21T07:14:42;8.60;99.90
5382;DHT22;2714;49.852;6.564;2023-03-21T07:18:42;8.80;99.90
5382;DHT22;2714;49.852;6.564;2023-03-21T07:22:43;8.90;99.90
5382;DHT22;2714;49.852;6.564;2023-03-21T07:26:44;9.00;99.90
5382;DHT22;2714;49.852;6.564;2023-03-21T07:30:50;9.10;99.90
5382;DHT22;2714;49.852;6.564;2023-03-21T07:34:51;9.30;99.90
5382;DHT22;2714;49.852;6.564;2023-03-21T07:38:51;9.40;99.90
5382;DHT22;2714;49.852;6.564;2023-03-21T07:42:52;9.50;99.90
5382;DHT22;2714;49.852;6.564;2023-03-21T07:46:53;9.50;99.90
5382;DHT22;2714;49.852;6.564;2023-03-21T07:50:53;9.50;99.90
5382;DHT22;2714;49.852;6.564;2023-03-21T07:54:54;9.50;99.90
5382;DHT22;2714;49.852;6.564;2023-03-21T07:58:54;9.60;99.90
5382;DHT22;2714;49.852;6.564;2023-03-21T08:02:56;9.80;99.90
5382;DHT22;2714;49.852;6.564;2023-03-21T08:06:57;9.90;99.90
5382;DHT22;2714;49.852;6.564;2023-03-21T08:10:58;10.00;99.90
5382;DHT22;2714;49.852;6.564;2023-03-21T08:14:59;10.00;99.90
5382;DHT22;2714;49.852;6.564;2023-03-21T08:18:59;10.10;99.90
5382;DHT22;2714;49.852;6.564;2023-03-21T08:23:00;10.10;99.90
5382;DHT22;2714;49.852;6.564;2023-03-21T08:27:01;10.00;99.90
5382;DHT22;2714;49.852;6.564;2023-03-21T08:31:08;10.10;99.90
5382;DHT22;2714;49.852;6.564;2023-03-21T08:35:11;10.10;99.90
5382;DHT22;2714;49.852;6.564;2023-03-21T08:39:12;10.10;99.90
5382;DHT22;2714;49.852;6.564;2023-03-21T08:43:13;10.00;99.90
5382;DHT22;2714;49.852;6.564;2023-03-21T08:47:14;9.90;99.90
5382;DHT22;2714;49.852;6.564;2023-03-21T08:51:15;10.10;99.90
5382;DHT22;2714;49.852;6.564;2023-03-21T08:55:17;10.30;99.90
5382;DHT22;2714;49.852;6.564;2023-03-21T08:59:18;11.00;99.90
5382;DHT22;2714;49.852;6.564;2023-03-21T09:03:18;11.50;99.90
5382;DHT22;2714;49.852;6.564;2023-03-21T09:07:20;11.40;99.90
5382;DHT22;2714;49.852;6.564;2023-03-21T09:11:21;11.50;99.90
5382;DHT22;2714;49.852;6.564;2023-03-21T09:15:24;11.50;99.90
5382;DHT22;2714;49.852;6.564;2023-03-21T09:19:27;11.60;99.90
5382;DHT22;2714;49.852;6.564;2023-03-21T09:23:29;11.50;99.90
5382;DHT22;2714;49.852;6.564;2023-03-21T09:27:29;11.30;99.90
5382;DHT22;2714;49.852;6.564;2023-03-21T09:31:31;11.20;99.90
5382;DHT22;2714;49.852;6.564;2023-03-21T09:35:32;11.30;99.90
5382;DHT22;2714;49.852;6.564;2023-03-21T09:39:32;11.20;99.90
5382;DHT22;2714;49.852;6.564;2023-03-21T09:47:46;11.80;99.90
5382;DHT22;2714;49.852;6.564;2023-03-21T09:51:54;11.90;99.90
5382;DHT22;2714;49.852;6.564;2023-03-21T09:55:56;11.80;99.90
5382;DHT22;2714;49.852;6.564;2023-03-21T09:59:58;12.10;99.90
5382;DHT22;2714;49.852;6.564;2023-03-21T10:04:12;12.30;99.90
5382;DHT22;2714;49.852;6.564;2023-03-21T10:08:21;12.40;99.90
5382;DHT22;2714;49.852;6.564;2023-03-21T10:12:26;12.40;99.90
5382;DHT22;2714;49.852;6.564;2023-03-21T10:16:36;12.20;99.90
5382;DHT22;2714;49.852;6.564;2023-03-21T10:20:41;12.10;99.90
5382;DHT22;2714;49.852;6.564;2023-03-21T10:24:42;12.20;99.90
5382;DHT22;2714;49.852;6.564;2023-03-21T10:28:42;12.10;99.90
5382;DHT22;2714;49.852;6.564;2023-03-21T10:32:44;12.00;99.90
5382;DHT22;2714;49.852;6.564;2023-03-21T10:36:45;11.90;99.90
5382;DHT22;2714;49.852;6.564;2023-03-21T10:40:46;12.00;99.90
5382;DHT22;2714;49.852;6.564;2023-03-21T10:44:49;11.80;99.90
5382;DHT22;2714;49.852;6.564;2023-03-21T10:48:52;11.60;99.90
5382;DHT22;2714;49.852;6.564;2023-03-21T10:52:55;11.50;99.90
5382;DHT22;2714;49.852;6.564;2023-03-21T10:57:04;11.60;99.90
5382;DHT22;2714;49.852;6.564;2023-03-21T11:01:09;11.70;99.90
5382;DHT22;2714;49.852;6.564;2023-03-21T11:05:25;11.90;99.90
5382;DHT22;2714;49.852;6.564;2023-03-21T11:10:11;12.00;99.90
5382;DHT22;2714;49.852;6.564;2023-03-21T11:14:06;12.00;99.90
5382;DHT22;2714;49.852;6.564;2023-03-21T11:18:22;12.10;99.90
5382;DHT22;2714;49.852;6.564;2023-03-21T11:22:28;12.40;99.90
5382;DHT22;2714;49.852;6.564;2023-03-21T11:26:32;12.50;99.90
5382;DHT22;2714;49.852;6.564;2023-03-21T11:30:35;12.80;99.90
5382;DHT22;2714;49.852;6.564;2023-03-21T11:34:44;13.00;99.90
5382;DHT22;2714;49.852;6.564;2023-03-21T11:38:50;12.80;99.90
5382;DHT22;2714;49.852;6.564;2023-03-21T11:42:54;12.90;99.90
5382;DHT22;2714;49.852;6.564;2023-03-21T11:46:55;13.10;99.90
5382;DHT22;2714;49.852;6.564;2023-03-21T12:00:20;13.60;99.90
5382;DHT22;2714;49.852;6.564;2023-03-21T12:04:41;14.20;99.90
5382;DHT22;2714;49.852;6.564;2023-03-21T12:12:58;14.30;99.90
5382;DHT22;2714;49.852;6.564;2023-03-21T12:17:09;13.50;99.90
5382;DHT22;2714;49.852;6.564;2023-03-21T12:21:25;12.90;99.90
5382;DHT22;2714;49.852;6.564;2023-03-21T12:39:29;13.50;99.90
5382;DHT22;2714;49.852;6.564;2023-03-21T12:47:40;14.00;99.90
5382;DHT22;2714;49.852;6.564;2023-03-21T12:51:48;13.90;99.90
5382;DHT22;2714;49.852;6.564;2023-03-21T12:55:50;13.70;99.90
5382;DHT22;2714;49.852;6.564;2023-03-21T13:08:40;13.50;99.90
5382;DHT22;2714;49.852;6.564;2023-03-21T13:16:54;13.30;99.90
5382;DHT22;2714;49.852;6.564;2023-03-21T13:25:22;13.40;99.90
5382;DHT22;2714;49.852;6.564;2023-03-21T13:33:29;13.20;99.90
5382;DHT22;2714;49.852;6.564;2023-03-21T13:37:34;13.30;99.90
5382;DHT22;2714;49.852;6.564;2023-03-21T13:41:41;13.20;99.90
5382;DHT22;2714;49.852;6.564;2023-03-21T13:45:53;13.20;99.90
5382;DHT22;2714;49.852;6.564;2023-03-21T13:58:57;13.10;99.90
5382;DHT22;2714;49.852;6.564;2023-03-21T14:03:04;13.10;99.90
5382;DHT22;2714;49.852;6.564;2023-03-21T14:07:12;13.20;99.90
5382;DHT22;2714;49.852;6.564;2023-03-21T14:11:17;13.50;99.90
5382;DHT22;2714;49.852;6.564;2023-03-21T14:15:35;13.40;99.90
5382;DHT22;2714;49.852;6.564;2023-03-21T14:19:37;13.50;99.90
5382;DHT22;2714;49.852;6.564;2023-03-21T14:23:38;13.80;99.90
5382;DHT22;2714;49.852;6.564;2023-03-21T14:27:47;14.00;99.90
5382;DHT22;2714;49.852;6.564;2023-03-21T14:31:48;14.20;99.90
5382;DHT22;2714;49.852;6.564;2023-03-21T14:35:49;14.10;99.90
5382;DHT22;2714;49.852;6.564;2023-03-21T14:40:03;14.10;99.90
5382;DHT22;2714;49.852;6.564;2023-03-21T14:44:18;14.00;99.90
5382;DHT22;2714;49.852;6.564;2023-03-21T14:48:29;13.90;99.90
5382;DHT22;2714;49.852;6.564;2023-03-21T14:52:32;13.90;99.90
5382;DHT22;2714;49.852;6.564;2023-03-21T14:56:34;13.80;99.90
5382;DHT22;2714;49.852;6.564;2023-03-21T15:00:36;14.10;99.90
5382;DHT22;2714;49.852;6.564;2023-03-21T15:04:37;14.20;99.90
5382;DHT22;2714;49.852;6.564;2023-03-21T15:08:38;14.10;99.90
5382;DHT22;2714;49.852;6.564;2023-03-21T15:12:49;13.90;99.90
5382;DHT22;2714;49.852;6.564;2023-03-21T15:16:51;13.70;99.90
5382;DHT22;2714;49.852;6.564;2023-03-21T15:20:54;13.60;99.90
5382;DHT22;2714;49.852;6.564;2023-03-21T15:25:00;13.70;99.90
5382;DHT22;2714;49.852;6.564;2023-03-21T15:29:02;13.80;99.90
5382;DHT22;2714;49.852;6.564;2023-03-21T15:33:08;13.70;99.90
5382;DHT22;2714;49.852;6.564;2023-03-21T15:37:16;13.70;99.90
5382;DHT22;2714;49.852;6.564;2023-03-21T15:45:24;13.90;99.90
5382;DHT22;2714;49.852;6.564;2023-03-21T15:53:26;14.00;99.90
5382;DHT22;2714;49.852;6.564;2023-03-21T15:57:32;14.00;99.90
5382;DHT22;2714;49.852;6.564;2023-03-21T16:01:33;14.10;99.90
5382;DHT22;2714;49.852;6.564;2023-03-21T16:05:38;14.10;99.90
5382;DHT22;2714;49.852;6.564;2023-03-21T16:09:42;14.10;99.90
5382;DHT22;2714;49.852;6.564;2023-03-21T16:13:43;13.90;99.90
5382;DHT22;2714;49.852;6.564;2023-03-21T16:17:50;13.50;99.90
5382;DHT22;2714;49.852;6.564;2023-03-21T16:21:53;13.50;99.90
5382;DHT22;2714;49.852;6.564;2023-03-21T16:25:55;13.50;99.90
5382;DHT22;2714;49.852;6.564;2023-03-21T16:29:57;13.40;99.90
5382;DHT22;2714;49.852;6.564;2023-03-21T16:33:58;13.50;99.90
5382;DHT22;2714;49.852;6.564;2023-03-21T16:37:59;13.50;99.90
5382;DHT22;2714;49.852;6.564;2023-03-21T16:41:59;13.40;99.90
5382;DHT22;2714;49.852;6.564;2023-03-21T16:46:00;13.30;99.90
5382;DHT22;2714;49.852;6.564;2023-03-21T16:50:00;13.10;99.90
5382;DHT22;2714;49.852;6.564;2023-03-21T16:54:01;12.80;99.90
5382;DHT22;2714;49.852;6.564;2023-03-21T16:58:02;12.70;99.90
5382;DHT22;2714;49.852;6.564;2023-03-21T17:02:12;12.60;99.90
5382;DHT22;2714;49.852;6.564;2023-03-21T17:06:24;12.40;99.90
5382;DHT22;2714;49.852;6.564;2023-03-21T17:10:27;12.30;99.90
5382;DHT22;2714;49.852;6.564;2023-03-21T17:14:28;12.30;99.90
5382;DHT22;2714;49.852;6.564;2023-03-21T17:18:28;12.20;99.90
5382;DHT22;2714;49.852;6.564;2023-03-21T17:22:29;11.90;99.90
5382;DHT22;2714;49.852;6.564;2023-03-21T17:26:30;11.70;99.90
5382;DHT22;2714;49.852;6.564;2023-03-21T17:30:33;11.50;99.90
5382;DHT22;2714;49.852;6.564;2023-03-21T17:34:34;11.40;99.90
5382;DHT22;2714;49.852;6.564;2023-03-21T17:38:35;11.30;99.90
5382;DHT22;2714;49.852;6.564;2023-03-21T17:42:37;11.30;99.90
5382;DHT22;2714;49.852;6.564;2023-03-21T17:46:39;11.20;99.90
5382;DHT22;2714;49.852;6.564;2023-03-21T17:50:40;11.20;99.90
5382;DHT22;2714;49.852;6.564;2023-03-21T17:54:40;11.40;99.90
5382;DHT22;2714;49.852;6.564;2023-03-21T17:58:41;11.40;99.90
5382;DHT22;2714;49.852;6.564;2023-03-21T18:02:42;11.50;99.90
5382;DHT22;2714;49.852;6.564;2023-03-21T18:06:43;11.60;99.90
5382;DHT22;2714;49.852;6.564;2023-03-21T18:10:44;11.60;99.90
5382;DHT22;2714;49.852;6.564;2023-03-21T18:14:45;11.70;99.90
5382;DHT22;2714;49.852;6.564;2023-03-21T18:18:46;11.70;99.90
5382;DHT22;2714;49.852;6.564;2023-03-21T18:22:47;11.70;99.90
5382;DHT22;2714;49.852;6.564;2023-03-21T18:26:48;11.50;99.90
5382;DHT22;2714;49.852;6.564;2023-03-21T18:30:49;11.50;99.90
5382;DHT22;2714;49.852;6.564;2023-03-21T18:34:51;11.40;99.90
5382;DHT22;2714;49.852;6.564;2023-03-21T18:38:51;11.50;99.90
5382;DHT22;2714;49.852;6.564;2023-03-21T18:42:52;11.50;99.90
5382;DHT22;2714;49.852;6.564;2023-03-21T18:46:52;11.60;99.90
5382;DHT22;2714;49.852;6.564;2023-03-21T18:50:53;11.60;99.90
5382;DHT22;2714;49.852;6.564;2023-03-21T18:54:54;11.60;99.90
5382;DHT22;2714;49.852;6.564;2023-03-21T18:58:54;11.60;99.90
5382;DHT22;2714;49.852;6.564;2023-03-21T19:02:55;11.60;99.90
5382;DHT22;2714;49.852;6.564;2023-03-21T19:06:56;11.50;99.90
5382;DHT22;2714;49.852;6.564;2023-03-21T19:10:57;11.50;99.90
5382;DHT22;2714;49.852;6.564;2023-03-21T19:14:58;11.50;99.90
5382;DHT22;2714;49.852;6.564;2023-03-21T19:18:58;11.50;99.90
5382;DHT22;2714;49.852;6.564;2023-03-21T19:22:59;11.40;99.90
5382;DHT22;2714;49.852;6.564;2023-03-21T19:27:00;11.20;99.90
5382;DHT22;2714;49.852;6.564;2023-03-21T19:31:07;11.10;99.90
5382;DHT22;2714;49.852;6.564;2023-03-21T19:35:08;11.00;99.90
5382;DHT22;2714;49.852;6.564;2023-03-21T19:39:09;10.90;99.90
5382;DHT22;2714;49.852;6.564;2023-03-21T19:43:10;10.70;99.90
5382;DHT22;2714;49.852;6.564;2023-03-21T19:47:11;10.60;99.90
5382;DHT22;2714;49.852;6.564;2023-03-21T19:51:12;10.50;99.90
5382;DHT22;2714;49.852;6.564;2023-03-21T19:55:12;10.50;99.90
5382;DHT22;2714;49.852;6.564;2023-03-21T19:59:14;10.30;99.90
5382;DHT22;2714;49.852;6.564;2023-03-21T20:03:15;10.30;99.90
5382;DHT22;2714;49.852;6.564;2023-03-21T20:07:16;10.00;99.90
5382;DHT22;2714;49.852;6.564;2023-03-21T20:11:16;9.90;99.90
5382;DHT22;2714;49.852;6.564;2023-03-21T20:15:17;9.80;99.90
5382;DHT22;2714;49.852;6.564;2023-03-21T20:19:18;9.80;99.90
5382;DHT22;2714;49.852;6.564;2023-03-21T20:23:19;9.80;99.90
5382;DHT22;2714;49.852;6.564;2023-03-21T20:27:20;9.70;99.90
5382;DHT22;2714;49.852;6.564;2023-03-21T20:31:24;9.80;99.90
5382;DHT22;2714;49.852;6.564;2023-03-21T20:35:25;9.80;99.90
5382;DHT22;2714;49.852;6.564;2023-03-21T20:39:25;9.90;99.90
5382;DHT22;2714;49.852;6.564;2023-03-21T20:43:27;9.90;99.90
5382;DHT22;2714;49.852;6.564;2023-03-21T20:47:27;9.90;99.90
5382;DHT22;2714;49.852;6.564;2023-03-21T20:51:28;9.90;99.90
5382;DHT22;2714;49.852;6.564;2023-03-21T20:55:29;9.90;99.90
5382;DHT22;2714;49.852;6.564;2023-03-21T20:59:30;10.00;99.90
5382;DHT22;2714;49.852;6.564;2023-03-21T21:03:33;9.90;99.90
5382;DHT22;2714;49.852;6.564;2023-03-21T21:07:40;9.80;99.90
5382;DHT22;2714;49.852;6.564;2023-03-21T21:11:42;9.70;99.90
5382;DHT22;2714;49.852;6.564;2023-03-21T21:15:43;9.60;99.90
5382;DHT22;2714;49.852;6.564;2023-03-21T21:19:45;9.50;99.90
5382;DHT22;2714;49.852;6.564;2023-03-21T21:23:49;9.50;99.90
5382;DHT22;2714;49.852;6.564;2023-03-21T21:27:50;9.60;99.90
5382;DHT22;2714;49.852;6.564;2023-03-21T21:31:51;9.70;99.90
5382;DHT22;2714;49.852;6.564;2023-03-21T21:35:51;9.80;99.90
5382;DHT22;2714;49.852;6.564;2023-03-21T21:39:54;9.80;99.90
5382;DHT22;2714;49.852;6.564;2023-03-21T21:43:55;9.80;99.90
5382;DHT22;2714;49.852;6.564;2023-03-21T21:47:56;9.80;99.90
5382;DHT22;2714;49.852;6.564;2023-03-21T21:51:57;9.80;99.90
5382;DHT22;2714;49.852;6.564;2023-03-21T21:55:59;9.70;99.90
5382;DHT22;2714;49.852;6.564;2023-03-21T22:00:03;9.60;99.90
5382;DHT22;2714;49.852;6.564;2023-03-21T22:04:06;9.50;99.90
5382;DHT22;2714;49.852;6.564;2023-03-21T22:08:07;9.40;99.90
5382;DHT22;2714;49.852;6.564;2023-03-21T22:12:08;9.30;99.90
5382;DHT22;2714;49.852;6.564;2023-03-21T22:16:09;9.30;99.90
5382;DHT22;2714;49.852;6.564;2023-03-21T22:20:12;9.20;99.90
5382;DHT22;2714;49.852;6.564;2023-03-21T22:24:16;9.20;99.90
5382;DHT22;2714;49.852;6.564;2023-03-21T22:28:17;9.10;99.90
5382;DHT22;2714;49.852;6.564;2023-03-21T22:32:21;9.00;99.90
5382;DHT22;2714;49.852;6.564;2023-03-21T22:36:22;8.90;99.90
5382;DHT22;2714;49.852;6.564;2023-03-21T22:40:22;8.90;99.90
5382;DHT22;2714;49.852;6.564;2023-03-21T22:44:23;8.80;99.90
5382;DHT22;2714;49.852;6.564;2023-03-21T22:48:24;8.90;99.90
5382;DHT22;2714;49.852;6.564;2023-03-21T22:52:25;9.00;99.90
5382;DHT22;2714;49.852;6.564;2023-03-21T22:56:26;9.10;99.90
5382;DHT22;2714;49.852;6.564;2023-03-21T23:00:26;9.10;99.90
5382;DHT22;2714;49.852;6.564;2023-03-21T23:04:27;9.10;99.90
5382;DHT22;2714;49.852;6.564;2023-03-21T23:08:28;9.20;99.90
5382;DHT22;2714;49.852;6.564;2023-03-21T23:12:29;9.30;99.90
5382;DHT22;2714;49.852;6.564;2023-03-21T23:16:31;9.40;99.90
5382;DHT22;2714;49.852;6.564;2023-03-21T23:20:31;9.40;99.90
5382;DHT22;2714;49.852;6.564;2023-03-21T23:24:32;9.30;99.90
5382;DHT22;2714;49.852;6.564;2023-03-21T23:28:32;9.20;99.90
5382;DHT22;2714;49.852;6.564;2023-03-21T23:32:33;9.20;99.90
5382;DHT22;2714;49.852;6.564;2023-03-21T23:36:34;9.10;99.90
5382;DHT22;2714;49.852;6.564;2023-03-21T23:40:37;9.00;99.90
5382;DHT22;2714;49.852;6.564;2023-03-21T23:44:38;8.90;99.90
5382;DHT22;2714;49.852;6.564;2023-03-21T23:48:39;8.90;99.90
5382;DHT22;2714;49.852;6.564;2023-03-21T23:52:41;8.80;99.90
5382;DHT22;2714;49.852;6.564;2023-03-21T23:56:41;8.80;99.90
